Ashmore, Illinois
Current Conditions -  °F | °C
As of 10:01 AM on Sunday 25 Jan 2015 (Local Time) from KMTO Reporting Station
Light Rain Light Rain  
Wind Chill:   Ceiling: 1000
Heat Index:   Visibility: 5mi
Dew Point:   Wind: 3mph
Humidity: 100%   Direction: 150°SSE
Pressure: 29.61"   Gusts: NA
Location:  39.53°N, 88.02°W
Report Text: KMTO 251601Z AUTO 15003KT 5SM -RA BR OVC010 03/03 A2961 RMK AO2 P0000 T00330033
Loading
Personal Weather Stations






























Interactive Weather Map New forecast layout! Learn more

10-Day Weather Forecast

Advertisements
Track Severe Weather on mobile